Abbeville, South Carolina
Current Conditions -  °F | °C
As of 9:56 AM on Saturday 22 Nov 2014 (Local Time) from KGRD Reporting Station
Clear Clear  
Wind Chill: 37°   Ceiling: Unl
Heat Index: 42°   Visibility: 10mi
Dew Point: 18°   Wind: 8mph
Humidity: 38%   Direction: 50°NE
Pressure: 30.54"   Gusts: NA
Location:  34.18°N, 82.38°W
Report Text: KGRD 221456Z AUTO 05007KT 10SM CLR 06/M08 A3054 RMK AO2 SLP346 T00561078 55002
Loading
Personal Weather Stations






























Interactive Weather Map New forecast layout! Learn more

10-Day Weather Forecast

Advertisements
Track Severe Weather on mobile